createdAt,value
2022-12-13T00:01:24.185Z,21.00
2022-12-13T00:03:52.515Z,20.97
2022-12-13T00:06:18.847Z,20.95
2022-12-13T00:08:45.192Z,20.93
2022-12-13T00:11:12.027Z,20.93
2022-12-13T00:13:38.568Z,20.92
2022-12-13T00:16:05.979Z,20.92
2022-12-13T00:18:32.465Z,20.91
2022-12-13T00:20:59.078Z,20.91
2022-12-13T00:23:25.406Z,20.92
2022-12-13T00:25:51.719Z,20.92
2022-12-13T00:28:18.259Z,20.95
2022-12-13T00:30:44.641Z,20.96
2022-12-13T00:33:11.058Z,20.96
2022-12-13T00:35:40.914Z,20.93
2022-12-13T00:38:07.238Z,20.92
2022-12-13T00:40:33.557Z,20.91
2022-12-13T00:42:59.889Z,20.91
2022-12-13T00:45:26.242Z,20.90
2022-12-13T00:47:52.611Z,20.89
2022-12-13T00:50:18.947Z,20.89
2022-12-13T00:52:45.272Z,20.88
2022-12-13T00:55:11.775Z,20.88
2022-12-13T00:57:38.480Z,20.87
2022-12-13T01:00:05.113Z,20.92
2022-12-13T01:02:31.461Z,20.96
2022-12-13T01:04:57.844Z,20.98
2022-12-13T01:07:24.286Z,21.00
2022-12-13T01:09:50.604Z,20.97
2022-12-13T01:12:17.302Z,20.95
2022-12-13T01:14:44.228Z,20.93
2022-12-13T01:17:10.661Z,20.91
2022-12-13T01:19:37.049Z,20.91
2022-12-13T01:22:04.445Z,20.88
2022-12-13T01:24:30.779Z,20.89
2022-12-13T01:26:57.661Z,20.88
2022-12-13T01:29:24.167Z,20.87
2022-12-13T01:31:52.361Z,20.87
2022-12-13T01:34:19.022Z,20.88
2022-12-13T01:36:45.634Z,20.88
2022-12-13T01:39:14.543Z,20.87
2022-12-13T01:41:41.324Z,20.89
2022-12-13T01:44:27.841Z,20.90
2022-12-13T01:46:54.180Z,20.89
2022-12-13T01:49:21.004Z,20.88
2022-12-13T01:51:54.737Z,20.86
2022-12-13T01:54:24.929Z,20.86
2022-12-13T01:57:00.714Z,20.86
2022-12-13T01:59:27.445Z,20.85
2022-12-13T02:01:54.019Z,20.85
2022-12-13T02:04:28.666Z,20.83
2022-12-13T02:06:54.989Z,20.83
2022-12-13T02:09:21.365Z,20.83
2022-12-13T02:11:47.709Z,20.84
2022-12-13T02:14:14.025Z,20.84
2022-12-13T02:16:43.972Z,20.85
2022-12-13T02:19:22.183Z,20.86
2022-12-13T02:38:48.427Z,20.80
2022-12-13T02:41:28.304Z,20.80
2022-12-13T02:44:22.652Z,20.82
2022-12-13T02:46:53.927Z,20.82
2022-12-13T02:49:20.741Z,20.84
2022-12-13T02:51:47.060Z,20.83
2022-12-13T02:54:13.386Z,20.84
2022-12-13T02:56:39.707Z,20.82
2022-12-13T02:59:08.806Z,20.80
2022-12-13T03:01:47.576Z,20.80
2022-12-13T03:04:36.477Z,20.80
2022-12-13T03:07:07.264Z,20.80
2022-12-13T03:09:33.624Z,20.78
2022-12-13T03:12:24.149Z,20.78
2022-12-13T03:14:56.265Z,20.78
2022-12-13T03:17:22.588Z,20.78
2022-12-13T03:19:51.332Z,20.79
2022-12-13T03:22:17.808Z,20.80
2022-12-13T03:24:44.170Z,20.80
2022-12-13T03:27:10.533Z,20.79
2022-12-13T03:29:37.953Z,20.80
2022-12-13T03:32:04.371Z,20.79
2022-12-13T03:34:44.233Z,20.77
2022-12-13T03:37:11.867Z,20.77
2022-12-13T03:39:38.197Z,20.76
2022-12-13T03:42:07.502Z,20.75
2022-12-13T03:44:33.835Z,20.75
2022-12-13T03:47:00.811Z,20.74
2022-12-13T03:49:35.372Z,20.76
2022-12-13T03:52:02.237Z,20.79
2022-12-13T03:54:28.553Z,20.80
2022-12-13T03:56:54.863Z,20.76
2022-12-13T03:59:21.185Z,20.77
2022-12-13T04:01:48.349Z,20.81
2022-12-13T04:04:14.684Z,20.83
2022-12-13T04:06:40.988Z,20.85
2022-12-13T04:09:07.344Z,20.84
2022-12-13T04:11:52.213Z,20.86
2022-12-13T04:14:22.353Z,20.85
2022-12-13T04:16:49.292Z,20.83
2022-12-13T04:19:15.661Z,20.83
2022-12-13T04:21:49.789Z,20.81
2022-12-13T04:24:16.440Z,20.78
2022-12-13T04:26:42.740Z,20.79
2022-12-13T04:29:09.063Z,20.79
2022-12-13T04:31:35.502Z,20.80
2022-12-13T04:34:01.911Z,20.78
2022-12-13T04:36:32.139Z,20.77
2022-12-13T04:39:01.725Z,20.77
2022-12-13T04:41:34.399Z,20.77
2022-12-13T04:44:01.104Z,20.76
2022-12-13T04:46:27.422Z,20.77
2022-12-13T04:48:53.754Z,20.77
2022-12-13T04:51:22.775Z,20.78
2022-12-13T04:53:49.090Z,20.77
2022-12-13T04:56:15.398Z,20.78
2022-12-13T04:58:41.759Z,20.80
2022-12-13T05:01:08.523Z,20.81
2022-12-13T05:03:35.054Z,20.82
2022-12-13T05:06:26.729Z,20.83
2022-12-13T05:08:54.041Z,20.84
2022-12-13T05:11:22.843Z,20.83
2022-12-13T05:13:49.460Z,20.84
2022-12-13T05:16:16.021Z,20.81
2022-12-13T05:18:42.391Z,20.81
2022-12-13T05:21:09.356Z,20.79
2022-12-13T05:23:36.117Z,20.78
2022-12-13T05:26:02.472Z,20.77
2022-12-13T05:28:29.120Z,20.78
2022-12-13T05:30:56.055Z,20.77
2022-12-13T05:33:22.718Z,20.77
2022-12-13T05:35:49.041Z,20.76
2022-12-13T05:38:15.518Z,20.75
2022-12-13T05:40:41.841Z,20.74
2022-12-13T05:43:21.013Z,20.72
2022-12-13T05:45:48.521Z,20.75
2022-12-13T05:48:24.404Z,20.74
2022-12-13T05:50:51.304Z,20.76
2022-12-13T05:53:30.986Z,20.76
2022-12-13T05:56:00.858Z,20.76
2022-12-13T05:58:27.224Z,20.79
2022-12-13T06:01:09.191Z,20.79
2022-12-13T06:03:35.774Z,20.79
2022-12-13T06:06:03.884Z,20.78
2022-12-13T06:08:30.669Z,20.79
2022-12-13T06:11:11.354Z,20.79
2022-12-13T06:13:42.118Z,20.79
2022-12-13T06:16:23.707Z,20.77
2022-12-13T06:18:50.591Z,20.76
2022-12-13T06:21:17.385Z,20.77
2022-12-13T06:23:44.192Z,20.76
2022-12-13T06:26:10.512Z,20.74
2022-12-13T06:28:36.848Z,20.73
2022-12-13T06:31:03.259Z,20.71
2022-12-13T06:33:29.911Z,20.80
2022-12-13T06:35:56.840Z,20.84
2022-12-13T06:38:31.972Z,20.81
2022-12-13T06:41:11.444Z,20.85
2022-12-13T06:43:37.767Z,20.88
2022-12-13T06:46:04.906Z,20.92
2022-12-13T06:48:31.270Z,20.95
2022-12-13T06:50:59.754Z,21.01
2022-12-13T06:53:26.069Z,21.14
2022-12-13T06:55:52.542Z,21.20
2022-12-13T06:58:18.875Z,21.22
2022-12-13T07:00:48.981Z,21.23
2022-12-13T07:03:15.995Z,21.13
2022-12-13T07:05:43.358Z,20.64
2022-12-13T07:08:10.062Z,20.84
2022-12-13T07:10:37.949Z,21.08
2022-12-13T07:13:04.303Z,21.14
2022-12-13T07:15:32.748Z,21.22
2022-12-13T07:17:59.145Z,21.23
2022-12-13T07:20:25.521Z,21.16
2022-12-13T07:22:58.825Z,21.08
2022-12-13T07:25:27.555Z,21.11
2022-12-13T07:27:56.125Z,21.11
2022-12-13T07:30:28.728Z,21.10
2022-12-13T07:32:55.070Z,21.05
2022-12-13T07:35:21.445Z,21.03
2022-12-13T07:37:47.773Z,21.03
2022-12-13T07:40:14.131Z,21.04
2022-12-13T07:42:40.465Z,21.00
2022-12-13T07:45:06.931Z,20.89
2022-12-13T07:47:36.947Z,21.23
2022-12-13T07:50:03.292Z,21.42
2022-12-13T07:52:43.363Z,21.42
2022-12-13T07:55:09.733Z,21.44
2022-12-13T07:57:36.044Z,21.49
2022-12-13T08:00:02.640Z,21.54
2022-12-13T08:02:39.836Z,21.55
2022-12-13T08:05:26.871Z,21.57
2022-12-13T08:07:53.245Z,21.60
2022-12-13T08:10:20.709Z,21.60
2022-12-13T08:12:47.032Z,21.64
2022-12-13T08:15:14.246Z,21.55
2022-12-13T08:17:47.468Z,21.54
2022-12-13T08:20:13.795Z,21.51
2022-12-13T08:22:55.256Z,21.49
2022-12-13T08:25:29.472Z,21.63
2022-12-13T08:27:55.815Z,21.63
2022-12-13T08:30:28.749Z,21.71
2022-12-13T08:32:55.894Z,21.67
2022-12-13T08:35:22.422Z,21.66
2022-12-13T08:37:49.554Z,21.68
2022-12-13T08:40:15.877Z,21.74
2022-12-13T08:42:42.242Z,21.80
2022-12-13T08:45:08.804Z,21.73
2022-12-13T08:47:41.383Z,21.69
2022-12-13T08:50:08.261Z,21.73
2022-12-13T08:52:39.453Z,21.83
2022-12-13T08:55:07.649Z,21.88
2022-12-13T08:57:35.562Z,21.80
2022-12-13T09:00:02.506Z,21.78
2022-12-13T09:02:28.900Z,21.73
2022-12-13T09:04:55.388Z,21.63
2022-12-13T09:07:21.709Z,21.60
2022-12-13T09:09:54.700Z,21.62
2022-12-13T09:12:30.707Z,21.65
2022-12-13T09:15:01.160Z,21.70
2022-12-13T09:17:28.666Z,21.73
2022-12-13T09:20:04.972Z,21.70
2022-12-13T09:22:50.143Z,21.59
2022-12-13T09:25:23.952Z,21.56
2022-12-13T09:27:50.765Z,21.42
2022-12-13T09:30:17.108Z,21.31
2022-12-13T09:32:49.597Z,21.27
2022-12-13T09:35:15.964Z,21.30
2022-12-13T09:37:45.902Z,21.25
2022-12-13T09:40:26.383Z,21.15
2022-12-13T09:43:11.941Z,21.18
2022-12-13T09:45:42.990Z,20.76
2022-12-13T09:48:13.538Z,20.87
2022-12-13T09:50:46.397Z,20.99
2022-12-13T09:53:21.768Z,21.08
2022-12-13T09:55:52.349Z,21.20
2022-12-13T09:58:23.825Z,21.06
2022-12-13T10:00:51.617Z,21.26
2022-12-13T10:03:18.383Z,21.24
2022-12-13T10:05:48.067Z,21.21
2022-12-13T10:08:14.940Z,21.21
2022-12-13T10:10:41.460Z,21.16
2022-12-13T10:13:13.644Z,21.18
2022-12-13T10:15:41.565Z,21.29
2022-12-13T10:18:10.957Z,21.38
2022-12-13T10:20:37.315Z,21.42
2022-12-13T10:23:33.173Z,21.55
2022-12-13T10:26:03.162Z,21.64
2022-12-13T10:28:30.914Z,21.68
2022-12-13T10:30:57.247Z,21.69
2022-12-13T10:33:30.644Z,21.71
2022-12-13T10:36:11.410Z,21.77
2022-12-13T10:38:42.496Z,21.77
2022-12-13T10:41:24.803Z,21.77
2022-12-13T10:44:09.741Z,21.78
2022-12-13T10:46:38.797Z,21.71
2022-12-13T10:49:12.810Z,21.62
2022-12-13T10:51:45.616Z,21.61
2022-12-13T10:54:14.318Z,21.71
2022-12-13T10:56:44.701Z,21.71
2022-12-13T10:59:17.178Z,21.78
2022-12-13T11:01:46.588Z,21.75
2022-12-13T11:04:27.523Z,21.75
2022-12-13T11:06:54.633Z,21.73
2022-12-13T11:09:24.989Z,21.77
2022-12-13T11:11:57.962Z,21.78
2022-12-13T11:14:31.683Z,21.73
2022-12-13T11:16:59.869Z,21.76
2022-12-13T11:19:36.387Z,21.75
2022-12-13T11:22:02.737Z,21.72
2022-12-13T11:24:30.203Z,21.63
2022-12-13T11:27:35.162Z,21.53
2022-12-13T11:30:03.705Z,21.65
2022-12-13T11:32:36.394Z,21.50
2022-12-13T11:35:24.475Z,21.61
2022-12-13T11:37:54.766Z,21.62
2022-12-13T11:40:25.784Z,21.66
2022-12-13T11:43:10.716Z,21.64
2022-12-13T11:45:37.860Z,21.69
2022-12-13T11:48:13.110Z,21.71
2022-12-13T11:50:43.624Z,21.71
2022-12-13T11:53:35.140Z,21.72
2022-12-13T11:56:11.324Z,21.70
2022-12-13T12:01:40.362Z,21.69
2022-12-13T12:04:10.841Z,21.73
2022-12-13T12:06:45.252Z,21.74
2022-12-13T12:09:15.426Z,21.80
2022-12-13T12:11:51.886Z,21.82
2022-12-13T12:14:21.146Z,21.83
2022-12-13T12:16:49.544Z,21.71
2022-12-13T12:19:16.920Z,21.69
2022-12-13T12:22:13.329Z,21.74
2022-12-13T12:24:45.405Z,21.82
2022-12-13T12:27:30.271Z,21.80
2022-12-13T12:30:02.032Z,21.78
2022-12-13T12:32:28.382Z,21.77
2022-12-13T12:35:13.691Z,21.75
2022-12-13T12:37:40.167Z,21.78
2022-12-13T12:40:11.405Z,21.75
2022-12-13T12:43:15.364Z,21.83
2022-12-13T12:45:58.266Z,21.81
2022-12-13T12:49:00.463Z,21.78
2022-12-13T12:51:54.835Z,21.67
2022-12-13T12:54:31.854Z,21.77
2022-12-13T12:57:01.770Z,21.79
2022-12-13T12:59:31.135Z,21.75
2022-12-13T13:01:57.485Z,21.77
2022-12-13T13:04:26.645Z,21.92
2022-12-13T13:07:01.425Z,21.90
2022-12-13T13:09:28.288Z,21.94
2022-12-13T13:11:57.602Z,22.10
2022-12-13T13:14:29.075Z,22.23
2022-12-13T13:16:55.772Z,21.78
2022-12-13T13:20:11.277Z,21.63
2022-12-13T13:22:42.972Z,21.75
2022-12-13T13:25:09.470Z,20.50
2022-12-13T13:27:47.766Z,20.80
2022-12-13T13:30:21.846Z,21.36
2022-12-13T13:32:48.236Z,21.60
2022-12-13T13:35:30.190Z,21.69
2022-12-13T13:37:57.138Z,21.83
2022-12-13T13:40:34.536Z,22.04
2022-12-13T13:43:07.030Z,22.14
2022-12-13T13:45:51.727Z,21.91
2022-12-13T13:48:26.165Z,21.95
2022-12-13T13:50:58.084Z,21.91
2022-12-13T13:53:43.711Z,22.03
2022-12-13T13:56:10.475Z,20.88
2022-12-13T13:58:49.042Z,21.48
2022-12-13T14:01:24.016Z,21.78
2022-12-13T14:04:10.174Z,21.98
2022-12-13T14:07:12.261Z,22.11
2022-12-13T14:09:53.418Z,22.20
2022-12-13T14:12:28.871Z,22.11
2022-12-13T14:15:08.884Z,22.18
2022-12-13T14:17:49.978Z,22.22
2022-12-13T14:20:33.225Z,22.22
2022-12-13T14:23:05.985Z,21.77
2022-12-13T14:25:40.236Z,21.88
2022-12-13T14:28:30.187Z,21.90
2022-12-13T14:30:56.987Z,21.94
2022-12-13T14:33:24.274Z,21.93
2022-12-13T14:35:52.103Z,22.02
2022-12-13T14:38:25.250Z,22.10
2022-12-13T14:40:52.648Z,22.11
2022-12-13T14:43:29.445Z,22.07
2022-12-13T14:46:02.214Z,22.09
2022-12-13T14:48:34.824Z,22.08
2022-12-13T14:51:01.306Z,22.09
2022-12-13T14:53:33.575Z,22.11
2022-12-13T14:56:28.563Z,22.14
2022-12-13T14:59:02.363Z,22.16
2022-12-13T15:01:32.874Z,22.15
2022-12-13T15:04:17.917Z,22.10
2022-12-13T15:06:48.355Z,22.13
2022-12-13T15:09:15.258Z,22.08
2022-12-13T15:11:41.929Z,22.02
2022-12-13T15:14:13.211Z,22.01
2022-12-13T15:16:39.641Z,22.11
2022-12-13T15:19:29.030Z,22.16
2022-12-13T15:22:11.302Z,22.14
2022-12-13T15:24:42.112Z,22.10
2022-12-13T15:27:13.071Z,22.09
2022-12-13T15:29:39.420Z,22.11
2022-12-13T15:32:05.919Z,22.18
2022-12-13T15:34:33.859Z,22.15
2022-12-13T15:37:01.416Z,22.15
2022-12-13T15:39:27.804Z,22.21
2022-12-13T15:41:54.625Z,22.23
2022-12-13T15:44:22.714Z,22.16
2022-12-13T15:46:49.771Z,22.13
2022-12-13T15:49:24.208Z,22.15
2022-12-13T15:51:57.343Z,22.12
2022-12-13T15:54:26.276Z,22.14
2022-12-13T15:56:58.394Z,22.11
2022-12-13T15:59:25.489Z,22.12
2022-12-13T16:01:57.834Z,22.15
2022-12-13T16:04:25.432Z,22.09
2022-12-13T16:06:55.793Z,22.08
2022-12-13T16:09:26.086Z,22.09
2022-12-13T16:11:53.363Z,22.08
2022-12-13T16:14:26.232Z,22.12
2022-12-13T16:16:53.229Z,22.15
2022-12-13T16:19:26.364Z,22.13
2022-12-13T16:21:52.721Z,22.11
2022-12-13T16:24:24.950Z,22.15
2022-12-13T16:26:51.420Z,22.10
2022-12-13T16:29:19.471Z,22.13
2022-12-13T16:31:46.006Z,22.11
2022-12-13T16:34:12.488Z,22.09
2022-12-13T16:36:38.805Z,22.09
2022-12-13T16:39:05.345Z,22.10
2022-12-13T16:41:34.771Z,22.13
2022-12-13T16:44:01.963Z,22.11
2022-12-13T16:47:13.758Z,22.10
2022-12-13T16:49:17.713Z,22.10
2022-12-13T16:51:56.294Z,22.05
2022-12-13T16:54:23.298Z,22.04
2022-12-13T16:56:53.680Z,22.09
2022-12-13T16:59:20.727Z,22.03
2022-12-13T17:01:50.970Z,22.09
2022-12-13T17:04:22.354Z,22.15
2022-12-13T17:06:49.488Z,22.17
2022-12-13T17:09:15.821Z,22.16
2022-12-13T17:11:42.157Z,22.18
2022-12-13T17:14:08.517Z,21.95
2022-12-13T17:16:34.907Z,21.93
2022-12-13T17:19:01.413Z,21.95
2022-12-13T17:21:28.542Z,21.99
2022-12-13T17:23:58.276Z,21.95
2022-12-13T17:26:24.649Z,22.02
2022-12-13T17:28:53.815Z,22.02
2022-12-13T17:31:20.241Z,22.04
2022-12-13T17:33:46.889Z,22.03
2022-12-13T17:36:13.652Z,21.96
2022-12-13T17:38:45.600Z,21.93
2022-12-13T17:41:12.349Z,21.96
2022-12-13T17:43:39.107Z,21.99
2022-12-13T17:46:12.251Z,22.08
2022-12-13T17:48:41.013Z,22.03
2022-12-13T17:51:11.498Z,22.03
2022-12-13T17:53:40.978Z,21.87
2022-12-13T17:56:12.142Z,21.95
2022-12-13T17:58:38.610Z,22.01
2022-12-13T18:01:11.210Z,21.97
2022-12-13T18:03:38.200Z,21.91
2022-12-13T18:06:07.676Z,21.90
2022-12-13T18:08:37.426Z,21.83
2022-12-13T18:13:55.247Z,21.74
2022-12-13T18:16:22.078Z,21.75
2022-12-13T18:18:54.852Z,19.92
2022-12-13T18:21:22.201Z,20.00
2022-12-13T18:23:55.017Z,20.78
2022-12-13T18:26:22.252Z,21.18
2022-12-13T18:28:48.591Z,21.33
2022-12-13T18:31:16.019Z,21.36
2022-12-13T18:33:47.282Z,21.38
2022-12-13T18:36:16.957Z,21.40
2022-12-13T18:38:43.925Z,21.41
2022-12-13T18:41:12.417Z,21.42
2022-12-13T18:43:38.746Z,21.43
2022-12-13T18:46:05.170Z,21.43
2022-12-13T18:48:31.534Z,21.42
2022-12-13T18:51:01.354Z,21.42
2022-12-13T18:53:27.979Z,21.41
2022-12-13T18:56:00.085Z,21.39
2022-12-13T18:58:26.496Z,20.62
2022-12-13T19:00:52.867Z,21.00
2022-12-13T19:03:19.260Z,21.17
2022-12-13T19:05:48.176Z,21.26
2022-12-13T19:08:14.497Z,21.28
2022-12-13T19:10:40.900Z,21.32
2022-12-13T19:13:07.220Z,21.36
2022-12-13T19:15:36.779Z,21.41
2022-12-13T19:18:03.146Z,21.42
2022-12-13T19:20:29.679Z,21.44
2022-12-13T19:22:56.162Z,21.59
2022-12-13T19:25:23.011Z,21.64
2022-12-13T19:27:49.384Z,21.65
2022-12-13T19:30:17.607Z,21.66
2022-12-13T19:32:44.128Z,21.64
2022-12-13T19:35:18.044Z,21.61
2022-12-13T19:37:44.384Z,21.60
2022-12-13T19:40:10.931Z,21.55
2022-12-13T19:42:37.297Z,21.54
2022-12-13T19:45:03.897Z,21.51
2022-12-13T19:47:30.235Z,21.51
2022-12-13T19:49:59.670Z,21.47
2022-12-13T19:52:28.949Z,21.46
2022-12-13T19:54:59.357Z,21.40
2022-12-13T19:57:26.684Z,21.38
2022-12-13T19:59:53.005Z,21.34
2022-12-13T20:02:19.947Z,21.34
2022-12-13T20:04:52.876Z,21.33
2022-12-13T20:07:22.188Z,21.37
2022-12-13T20:09:48.561Z,21.37
2022-12-13T20:12:14.882Z,21.37
2022-12-13T20:14:41.198Z,20.25
2022-12-13T20:17:08.106Z,20.46
2022-12-13T20:19:34.427Z,20.89
2022-12-13T20:22:01.496Z,21.04
2022-12-13T20:24:27.834Z,21.11
2022-12-13T20:26:54.284Z,21.03
2022-12-13T20:29:21.151Z,21.16
2022-12-13T20:31:48.817Z,21.13
2022-12-13T20:34:18.364Z,21.04
2022-12-13T20:36:44.698Z,21.12
2022-12-13T20:39:11.292Z,21.17
2022-12-13T20:41:37.637Z,21.19
2022-12-13T20:44:04.649Z,21.20
2022-12-13T20:46:31.691Z,21.20
2022-12-13T20:48:58.651Z,21.19
2022-12-13T20:51:31.924Z,21.20
2022-12-13T20:53:58.502Z,21.19
2022-12-13T20:56:25.645Z,21.17
2022-12-13T20:58:52.151Z,21.16
2022-12-13T21:01:22.282Z,21.15
2022-12-13T21:03:49.394Z,21.13
2022-12-13T21:06:15.713Z,21.12
2022-12-13T21:08:51.006Z,21.13
2022-12-13T21:11:27.024Z,21.12
2022-12-13T21:14:05.424Z,21.10
2022-12-13T21:16:35.963Z,21.12
2022-12-13T21:19:02.359Z,21.12
2022-12-13T21:21:28.689Z,21.12
2022-12-13T21:23:56.110Z,21.14
2022-12-13T21:26:30.021Z,21.14
2022-12-13T21:29:00.073Z,21.14
2022-12-13T21:31:26.493Z,21.14
2022-12-13T21:33:54.592Z,21.13
2022-12-13T21:36:21.664Z,21.12
2022-12-13T21:38:54.533Z,21.12
2022-12-13T21:41:20.849Z,21.12
2022-12-13T21:43:48.494Z,21.11
2022-12-13T21:46:16.462Z,21.10
2022-12-13T21:48:42.953Z,21.09
2022-12-13T21:51:10.485Z,21.09
2022-12-13T21:53:36.867Z,21.11
2022-12-13T21:56:23.434Z,21.12
2022-12-13T21:59:08.600Z,21.08
2022-12-13T22:01:53.803Z,21.06
2022-12-13T22:04:20.382Z,21.03
2022-12-13T22:06:46.722Z,21.03
2022-12-13T22:09:13.091Z,21.03
2022-12-13T22:11:41.158Z,21.00
2022-12-13T22:14:07.493Z,21.01
2022-12-13T22:16:33.833Z,21.01
2022-12-13T22:19:00.282Z,21.01
2022-12-13T22:21:26.589Z,21.02
2022-12-13T22:23:55.814Z,21.03
2022-12-13T22:26:22.661Z,21.01
2022-12-13T22:28:52.068Z,21.08
2022-12-13T22:31:18.425Z,21.07
2022-12-13T22:33:44.839Z,21.07
2022-12-13T22:36:11.168Z,21.08
2022-12-13T22:38:37.520Z,21.06
2022-12-13T22:41:03.930Z,21.04
2022-12-13T22:43:33.875Z,21.00
2022-12-13T22:46:04.779Z,20.99
2022-12-13T22:48:31.607Z,20.98
2022-12-13T22:51:07.964Z,20.99
2022-12-13T22:53:35.897Z,20.99
2022-12-13T22:56:03.843Z,20.99
2022-12-13T22:58:30.489Z,20.99
2022-12-13T23:00:56.866Z,21.00
2022-12-13T23:03:23.462Z,20.98
2022-12-13T23:05:52.930Z,20.97
2022-12-13T23:08:19.342Z,20.97
2022-12-13T23:11:04.091Z,20.95
2022-12-13T23:13:30.417Z,20.93
2022-12-13T23:15:56.734Z,20.93
2022-12-13T23:18:23.040Z,20.93
2022-12-13T23:20:49.363Z,20.96
2022-12-13T23:23:15.668Z,20.95
2022-12-13T23:25:41.984Z,20.94
2022-12-13T23:28:08.354Z,20.96
2022-12-13T23:30:35.939Z,20.95
2022-12-13T23:33:02.297Z,20.93
2022-12-13T23:35:29.341Z,20.92
2022-12-13T23:37:55.811Z,20.91
2022-12-13T23:40:22.136Z,20.90
2022-12-13T23:42:49.317Z,20.90
2022-12-13T23:45:15.639Z,20.92
2022-12-13T23:47:41.961Z,20.93
2022-12-13T23:50:08.461Z,20.93
2022-12-13T23:52:34.781Z,20.95
2022-12-13T23:55:01.128Z,20.94
2022-12-13T23:57:27.437Z,20.93
2022-12-13T23:59:53.872Z,20.93
